Phoenix, Arizona
Traffic Map
Current Weather Conditions
Phoenix, Arizona
Overcast Heavy Rain
Overcast
11°
Feels Like: 11°
Wind Chill: 11° Ceiling: 2900
Heat Index: 11° Visibility: 4mi
Dew Point: 10° Wind: 8mph
Humidity: 93% Direction: 220° (SW)
Pressure: 29.54in Gusts: 0mph
Raw Report DataKPHX 210351Z 22007KT 4SM +RA BR SCT016 BKN029 OVC038 11/10 A2954 RMK AO2 SLP000 P0019 T01110100 $
Traffic Incident Summary
Active as of:
Severity:
Category:
InformationThere was an issue retrieving the traffic information for this location. Please try a different location or try again shortly.
Advertisements
Track Severe Weather on mobile